sensor_id;sensor_type;location;lat;lon;timestamp;P1;durP1;ratioP1;P2;durP2;ratioP2
2023;SDS011;1016;48.770;9.154;2023-07-31T00:01:18;26.40;;;2.40;;
2023;SDS011;1016;48.770;9.154;2023-07-31T00:03:45;25.27;;;2.37;;
2023;SDS011;1016;48.770;9.154;2023-07-31T00:06:10;26.00;;;2.20;;
2023;SDS011;1016;48.770;9.154;2023-07-31T00:08:36;24.13;;;2.00;;
2023;SDS011;1016;48.770;9.154;2023-07-31T00:11:01;25.93;;;2.30;;
2023;SDS011;1016;48.770;9.154;2023-07-31T00:13:27;24.90;;;2.07;;
2023;SDS011;1016;48.770;9.154;2023-07-31T00:15:52;26.07;;;2.20;;
2023;SDS011;1016;48.770;9.154;2023-07-31T00:18:18;25.20;;;2.00;;
2023;SDS011;1016;48.770;9.154;2023-07-31T00:20:43;25.37;;;2.30;;
2023;SDS011;1016;48.770;9.154;2023-07-31T00:23:09;25.80;;;1.90;;
2023;SDS011;1016;48.770;9.154;2023-07-31T00:25:34;27.30;;;2.60;;
2023;SDS011;1016;48.770;9.154;2023-07-31T00:28:00;25.13;;;2.50;;
2023;SDS011;1016;48.770;9.154;2023-07-31T00:30:25;24.97;;;2.30;;
2023;SDS011;1016;48.770;9.154;2023-07-31T00:32:52;25.50;;;2.20;;
2023;SDS011;1016;48.770;9.154;2023-07-31T00:35:17;26.23;;;2.33;;
2023;SDS011;1016;48.770;9.154;2023-07-31T00:37:43;26.37;;;2.07;;
2023;SDS011;1016;48.770;9.154;2023-07-31T00:40:08;26.10;;;2.30;;
2023;SDS011;1016;48.770;9.154;2023-07-31T00:42:34;25.13;;;2.03;;
2023;SDS011;1016;48.770;9.154;2023-07-31T00:44:59;26.37;;;2.23;;
2023;SDS011;1016;48.770;9.154;2023-07-31T00:47:25;26.33;;;2.63;;
2023;SDS011;1016;48.770;9.154;2023-07-31T00:49:51;24.93;;;2.20;;
2023;SDS011;1016;48.770;9.154;2023-07-31T00:52:16;25.37;;;2.27;;
2023;SDS011;1016;48.770;9.154;2023-07-31T00:54:43;24.60;;;2.10;;
2023;SDS011;1016;48.770;9.154;2023-07-31T00:57:09;25.53;;;2.40;;
2023;SDS011;1016;48.770;9.154;2023-07-31T00:59:35;24.50;;;2.30;;
2023;SDS011;1016;48.770;9.154;2023-07-31T01:02:00;26.97;;;2.40;;
2023;SDS011;1016;48.770;9.154;2023-07-31T01:04:26;25.30;;;1.90;;
2023;SDS011;1016;48.770;9.154;2023-07-31T01:07:03;25.10;;;2.27;;
2023;SDS011;1016;48.770;9.154;2023-07-31T01:09:48;25.80;;;2.23;;
2023;SDS011;1016;48.770;9.154;2023-07-31T01:12:36;29.00;;;2.37;;
2023;SDS011;1016;48.770;9.154;2023-07-31T01:15:07;27.10;;;2.20;;
2023;SDS011;1016;48.770;9.154;2023-07-31T01:17:37;24.27;;;1.87;;
2023;SDS011;1016;48.770;9.154;2023-07-31T01:20:05;25.00;;;1.90;;
2023;SDS011;1016;48.770;9.154;2023-07-31T01:28:13;26.37;;;2.70;;
2023;SDS011;1016;48.770;9.154;2023-07-31T01:30:44;26.40;;;2.13;;
2023;SDS011;1016;48.770;9.154;2023-07-31T01:33:13;24.90;;;1.90;;
2023;SDS011;1016;48.770;9.154;2023-07-31T01:35:42;25.43;;;2.60;;
2023;SDS011;1016;48.770;9.154;2023-07-31T01:38:09;26.53;;;2.60;;
2023;SDS011;1016;48.770;9.154;2023-07-31T01:40:35;25.10;;;2.60;;
2023;SDS011;1016;48.770;9.154;2023-07-31T01:43:00;26.10;;;2.40;;
2023;SDS011;1016;48.770;9.154;2023-07-31T01:45:26;24.77;;;2.30;;
2023;SDS011;1016;48.770;9.154;2023-07-31T01:47:51;25.50;;;2.20;;
2023;SDS011;1016;48.770;9.154;2023-07-31T01:50:17;24.90;;;2.10;;
2023;SDS011;1016;48.770;9.154;2023-07-31T01:52:42;24.90;;;2.47;;
2023;SDS011;1016;48.770;9.154;2023-07-31T01:55:08;24.90;;;2.27;;
2023;SDS011;1016;48.770;9.154;2023-07-31T01:57:33;26.63;;;2.50;;
2023;SDS011;1016;48.770;9.154;2023-07-31T02:00:01;24.20;;;2.00;;
2023;SDS011;1016;48.770;9.154;2023-07-31T02:02:27;25.70;;;2.20;;
2023;SDS011;1016;48.770;9.154;2023-07-31T02:04:52;25.40;;;2.50;;
2023;SDS011;1016;48.770;9.154;2023-07-31T02:07:18;27.40;;;2.30;;
2023;SDS011;1016;48.770;9.154;2023-07-31T02:09:43;25.13;;;2.00;;
2023;SDS011;1016;48.770;9.154;2023-07-31T02:12:09;24.30;;;2.13;;
2023;SDS011;1016;48.770;9.154;2023-07-31T02:14:34;24.33;;;1.93;;
2023;SDS011;1016;48.770;9.154;2023-07-31T02:17:00;25.30;;;2.57;;
2023;SDS011;1016;48.770;9.154;2023-07-31T02:19:25;25.00;;;2.20;;
2023;SDS011;1016;48.770;9.154;2023-07-31T02:21:51;26.03;;;2.17;;
2023;SDS011;1016;48.770;9.154;2023-07-31T02:24:16;25.73;;;2.17;;
2023;SDS011;1016;48.770;9.154;2023-07-31T02:26:42;28.53;;;2.30;;
2023;SDS011;1016;48.770;9.154;2023-07-31T02:29:08;27.60;;;2.13;;
2023;SDS011;1016;48.770;9.154;2023-07-31T02:31:33;26.60;;;2.30;;
2023;SDS011;1016;48.770;9.154;2023-07-31T02:33:59;25.83;;;2.23;;
2023;SDS011;1016;48.770;9.154;2023-07-31T02:36:24;25.37;;;2.03;;
2023;SDS011;1016;48.770;9.154;2023-07-31T02:38:50;24.70;;;1.90;;
2023;SDS011;1016;48.770;9.154;2023-07-31T02:41:15;25.30;;;2.50;;
2023;SDS011;1016;48.770;9.154;2023-07-31T02:43:41;25.33;;;2.23;;
2023;SDS011;1016;48.770;9.154;2023-07-31T02:46:06;25.70;;;2.40;;
2023;SDS011;1016;48.770;9.154;2023-07-31T02:48:32;26.67;;;2.40;;
2023;SDS011;1016;48.770;9.154;2023-07-31T02:50:57;25.67;;;2.03;;
2023;SDS011;1016;48.770;9.154;2023-07-31T02:53:23;24.67;;;2.17;;
2023;SDS011;1016;48.770;9.154;2023-07-31T02:55:48;25.20;;;1.80;;
2023;SDS011;1016;48.770;9.154;2023-07-31T02:58:14;26.00;;;2.33;;
2023;SDS011;1016;48.770;9.154;2023-07-31T03:00:43;25.00;;;2.43;;
2023;SDS011;1016;48.770;9.154;2023-07-31T03:03:08;24.53;;;1.90;;
2023;SDS011;1016;48.770;9.154;2023-07-31T03:05:34;27.90;;;2.60;;
2023;SDS011;1016;48.770;9.154;2023-07-31T03:07:59;25.27;;;2.10;;
2023;SDS011;1016;48.770;9.154;2023-07-31T03:10:25;27.40;;;2.30;;
2023;SDS011;1016;48.770;9.154;2023-07-31T03:12:50;25.40;;;2.20;;
2023;SDS011;1016;48.770;9.154;2023-07-31T03:15:16;25.20;;;2.20;;
2023;SDS011;1016;48.770;9.154;2023-07-31T03:17:42;26.60;;;3.00;;
2023;SDS011;1016;48.770;9.154;2023-07-31T03:20:07;26.07;;;2.23;;
2023;SDS011;1016;48.770;9.154;2023-07-31T03:22:33;25.30;;;2.20;;
2023;SDS011;1016;48.770;9.154;2023-07-31T03:25:00;25.93;;;2.43;;
2023;SDS011;1016;48.770;9.154;2023-07-31T03:27:26;25.90;;;2.20;;
2023;SDS011;1016;48.770;9.154;2023-07-31T03:29:51;27.50;;;2.60;;
2023;SDS011;1016;48.770;9.154;2023-07-31T03:32:17;26.00;;;2.20;;
2023;SDS011;1016;48.770;9.154;2023-07-31T03:34:42;25.30;;;2.10;;
2023;SDS011;1016;48.770;9.154;2023-07-31T03:37:08;25.10;;;2.60;;
2023;SDS011;1016;48.770;9.154;2023-07-31T03:39:34;25.60;;;2.40;;
2023;SDS011;1016;48.770;9.154;2023-07-31T03:42:00;24.60;;;2.60;;
2023;SDS011;1016;48.770;9.154;2023-07-31T03:44:25;28.80;;;2.40;;
2023;SDS011;1016;48.770;9.154;2023-07-31T03:46:51;25.40;;;1.80;;
2023;SDS011;1016;48.770;9.154;2023-07-31T03:49:16;25.60;;;2.33;;
2023;SDS011;1016;48.770;9.154;2023-07-31T03:58:26;27.50;;;2.43;;
2023;SDS011;1016;48.770;9.154;2023-07-31T04:00:51;28.67;;;2.47;;
2023;SDS011;1016;48.770;9.154;2023-07-31T04:03:17;27.67;;;2.67;;
2023;SDS011;1016;48.770;9.154;2023-07-31T04:05:42;26.67;;;2.10;;
2023;SDS011;1016;48.770;9.154;2023-07-31T04:08:08;27.10;;;2.13;;
2023;SDS011;1016;48.770;9.154;2023-07-31T04:10:33;26.23;;;2.27;;
2023;SDS011;1016;48.770;9.154;2023-07-31T04:12:59;25.50;;;2.13;;
2023;SDS011;1016;48.770;9.154;2023-07-31T04:15:28;24.60;;;2.07;;
2023;SDS011;1016;48.770;9.154;2023-07-31T04:17:53;26.60;;;2.20;;
2023;SDS011;1016;48.770;9.154;2023-07-31T04:20:19;26.40;;;2.50;;
2023;SDS011;1016;48.770;9.154;2023-07-31T04:22:44;24.97;;;2.30;;
2023;SDS011;1016;48.770;9.154;2023-07-31T04:25:10;26.80;;;2.30;;
2023;SDS011;1016;48.770;9.154;2023-07-31T04:27:35;26.67;;;2.20;;
2023;SDS011;1016;48.770;9.154;2023-07-31T04:30:01;25.53;;;2.30;;
2023;SDS011;1016;48.770;9.154;2023-07-31T04:32:26;26.43;;;2.23;;
2023;SDS011;1016;48.770;9.154;2023-07-31T04:34:52;27.87;;;2.60;;
2023;SDS011;1016;48.770;9.154;2023-07-31T04:37:17;26.50;;;3.07;;
2023;SDS011;1016;48.770;9.154;2023-07-31T04:39:43;25.27;;;2.00;;
2023;SDS011;1016;48.770;9.154;2023-07-31T04:42:08;26.30;;;2.50;;
2023;SDS011;1016;48.770;9.154;2023-07-31T04:44:34;26.83;;;2.40;;
2023;SDS011;1016;48.770;9.154;2023-07-31T04:47:00;26.00;;;2.23;;
2023;SDS011;1016;48.770;9.154;2023-07-31T04:49:27;25.80;;;2.20;;
2023;SDS011;1016;48.770;9.154;2023-07-31T04:51:52;25.10;;;2.10;;
2023;SDS011;1016;48.770;9.154;2023-07-31T04:54:17;25.77;;;2.60;;
2023;SDS011;1016;48.770;9.154;2023-07-31T04:56:43;26.00;;;2.40;;
2023;SDS011;1016;48.770;9.154;2023-07-31T04:59:08;26.43;;;2.10;;
2023;SDS011;1016;48.770;9.154;2023-07-31T05:01:34;25.27;;;2.20;;
2023;SDS011;1016;48.770;9.154;2023-07-31T05:04:00;25.70;;;2.30;;
2023;SDS011;1016;48.770;9.154;2023-07-31T05:06:25;28.10;;;2.80;;
2023;SDS011;1016;48.770;9.154;2023-07-31T05:08:51;25.47;;;2.03;;
2023;SDS011;1016;48.770;9.154;2023-07-31T05:11:16;26.10;;;2.40;;
2023;SDS011;1016;48.770;9.154;2023-07-31T05:13:42;26.53;;;2.87;;
2023;SDS011;1016;48.770;9.154;2023-07-31T05:16:07;25.60;;;2.13;;
2023;SDS011;1016;48.770;9.154;2023-07-31T05:18:33;27.23;;;2.20;;
2023;SDS011;1016;48.770;9.154;2023-07-31T05:20:58;26.47;;;2.80;;
2023;SDS011;1016;48.770;9.154;2023-07-31T05:23:24;28.37;;;2.30;;
2023;SDS011;1016;48.770;9.154;2023-07-31T05:25:49;27.07;;;2.90;;
2023;SDS011;1016;48.770;9.154;2023-07-31T05:28:15;25.13;;;2.27;;
2023;SDS011;1016;48.770;9.154;2023-07-31T05:30:40;25.73;;;2.07;;
2023;SDS011;1016;48.770;9.154;2023-07-31T05:33:06;25.30;;;2.57;;
2023;SDS011;1016;48.770;9.154;2023-07-31T05:35:31;26.83;;;2.50;;
2023;SDS011;1016;48.770;9.154;2023-07-31T05:37:57;27.90;;;2.87;;
2023;SDS011;1016;48.770;9.154;2023-07-31T05:40:22;25.27;;;2.50;;
2023;SDS011;1016;48.770;9.154;2023-07-31T05:42:48;27.53;;;2.20;;
2023;SDS011;1016;48.770;9.154;2023-07-31T05:45:13;25.67;;;2.50;;
2023;SDS011;1016;48.770;9.154;2023-07-31T05:47:39;25.63;;;2.33;;
2023;SDS011;1016;48.770;9.154;2023-07-31T05:50:05;26.10;;;2.93;;
2023;SDS011;1016;48.770;9.154;2023-07-31T05:52:30;26.87;;;2.10;;
2023;SDS011;1016;48.770;9.154;2023-07-31T05:54:56;24.97;;;2.10;;
2023;SDS011;1016;48.770;9.154;2023-07-31T05:57:22;26.80;;;2.20;;
2023;SDS011;1016;48.770;9.154;2023-07-31T05:59:47;25.37;;;2.03;;
2023;SDS011;1016;48.770;9.154;2023-07-31T06:02:13;26.40;;;3.20;;
2023;SDS011;1016;48.770;9.154;2023-07-31T06:04:38;25.97;;;2.30;;
2023;SDS011;1016;48.770;9.154;2023-07-31T06:07:04;26.60;;;4.90;;
2023;SDS011;1016;48.770;9.154;2023-07-31T06:09:30;25.77;;;2.50;;
2023;SDS011;1016;48.770;9.154;2023-07-31T06:11:56;25.60;;;2.30;;
2023;SDS011;1016;48.770;9.154;2023-07-31T06:14:21;25.90;;;3.03;;
2023;SDS011;1016;48.770;9.154;2023-07-31T06:16:47;26.93;;;2.43;;
2023;SDS011;1016;48.770;9.154;2023-07-31T06:19:12;26.10;;;2.20;;
2023;SDS011;1016;48.770;9.154;2023-07-31T06:21:38;27.77;;;2.40;;
2023;SDS011;1016;48.770;9.154;2023-07-31T06:24:04;27.50;;;2.53;;
2023;SDS011;1016;48.770;9.154;2023-07-31T06:26:32;25.90;;;2.90;;
2023;SDS011;1016;48.770;9.154;2023-07-31T06:28:58;25.50;;;2.80;;
2023;SDS011;1016;48.770;9.154;2023-07-31T06:31:23;25.00;;;2.13;;
2023;SDS011;1016;48.770;9.154;2023-07-31T06:33:49;25.07;;;2.27;;
2023;SDS011;1016;48.770;9.154;2023-07-31T06:36:15;29.70;;;2.60;;
2023;SDS011;1016;48.770;9.154;2023-07-31T06:38:41;26.70;;;3.00;;
2023;SDS011;1016;48.770;9.154;2023-07-31T06:41:06;26.90;;;2.67;;
2023;SDS011;1016;48.770;9.154;2023-07-31T06:43:32;27.50;;;2.83;;
2023;SDS011;1016;48.770;9.154;2023-07-31T06:45:57;28.30;;;2.50;;
2023;SDS011;1016;48.770;9.154;2023-07-31T06:48:25;28.93;;;2.67;;
2023;SDS011;1016;48.770;9.154;2023-07-31T06:50:50;26.70;;;2.40;;
2023;SDS011;1016;48.770;9.154;2023-07-31T06:53:16;26.67;;;2.60;;
2023;SDS011;1016;48.770;9.154;2023-07-31T06:55:41;26.93;;;2.73;;
2023;SDS011;1016;48.770;9.154;2023-07-31T06:58:06;28.03;;;2.97;;
2023;SDS011;1016;48.770;9.154;2023-07-31T07:00:32;26.27;;;2.57;;
2023;SDS011;1016;48.770;9.154;2023-07-31T07:02:58;26.70;;;2.63;;
2023;SDS011;1016;48.770;9.154;2023-07-31T07:05:23;26.80;;;3.00;;
2023;SDS011;1016;48.770;9.154;2023-07-31T07:07:49;26.10;;;3.20;;
2023;SDS011;1016;48.770;9.154;2023-07-31T07:10:16;26.30;;;2.87;;
2023;SDS011;1016;48.770;9.154;2023-07-31T07:12:42;27.23;;;3.40;;
2023;SDS011;1016;48.770;9.154;2023-07-31T07:15:07;28.00;;;3.20;;
2023;SDS011;1016;48.770;9.154;2023-07-31T07:17:35;26.07;;;4.80;;
2023;SDS011;1016;48.770;9.154;2023-07-31T07:20:00;29.33;;;2.93;;
2023;SDS011;1016;48.770;9.154;2023-07-31T07:22:26;26.27;;;2.97;;
2023;SDS011;1016;48.770;9.154;2023-07-31T07:24:52;28.03;;;4.57;;
2023;SDS011;1016;48.770;9.154;2023-07-31T07:27:18;27.27;;;3.40;;
2023;SDS011;1016;48.770;9.154;2023-07-31T07:29:43;29.30;;;3.17;;
2023;SDS011;1016;48.770;9.154;2023-07-31T07:32:10;26.00;;;2.90;;
2023;SDS011;1016;48.770;9.154;2023-07-31T07:34:36;26.03;;;3.00;;
2023;SDS011;1016;48.770;9.154;2023-07-31T07:37:02;26.43;;;2.93;;
2023;SDS011;1016;48.770;9.154;2023-07-31T07:39:33;25.93;;;3.10;;
2023;SDS011;1016;48.770;9.154;2023-07-31T07:41:58;28.57;;;3.00;;
2023;SDS011;1016;48.770;9.154;2023-07-31T07:44:24;28.00;;;3.17;;
2023;SDS011;1016;48.770;9.154;2023-07-31T07:46:49;29.13;;;2.90;;
2023;SDS011;1016;48.770;9.154;2023-07-31T07:49:15;26.27;;;2.90;;
2023;SDS011;1016;48.770;9.154;2023-07-31T07:51:40;25.67;;;3.33;;
2023;SDS011;1016;48.770;9.154;2023-07-31T07:54:06;27.67;;;3.10;;
2023;SDS011;1016;48.770;9.154;2023-07-31T07:56:32;28.57;;;3.80;;
2023;SDS011;1016;48.770;9.154;2023-07-31T07:58:58;28.20;;;2.83;;
2023;SDS011;1016;48.770;9.154;2023-07-31T08:01:23;27.20;;;3.50;;
2023;SDS011;1016;48.770;9.154;2023-07-31T08:03:49;27.17;;;2.90;;
2023;SDS011;1016;48.770;9.154;2023-07-31T08:06:15;26.63;;;3.17;;
2023;SDS011;1016;48.770;9.154;2023-07-31T08:08:40;28.30;;;3.27;;
2023;SDS011;1016;48.770;9.154;2023-07-31T08:11:06;27.17;;;3.80;;
2023;SDS011;1016;48.770;9.154;2023-07-31T08:13:31;26.73;;;2.97;;
2023;SDS011;1016;48.770;9.154;2023-07-31T08:15:57;27.03;;;3.47;;
2023;SDS011;1016;48.770;9.154;2023-07-31T08:18:22;26.17;;;3.30;;
2023;SDS011;1016;48.770;9.154;2023-07-31T08:20:48;28.83;;;3.30;;
2023;SDS011;1016;48.770;9.154;2023-07-31T08:23:14;25.60;;;2.73;;
2023;SDS011;1016;48.770;9.154;2023-07-31T08:25:39;26.50;;;3.07;;
2023;SDS011;1016;48.770;9.154;2023-07-31T08:28:05;27.33;;;2.97;;
2023;SDS011;1016;48.770;9.154;2023-07-31T08:30:31;28.03;;;4.17;;
2023;SDS011;1016;48.770;9.154;2023-07-31T08:32:58;26.47;;;2.87;;
2023;SDS011;1016;48.770;9.154;2023-07-31T08:35:24;28.77;;;3.63;;
2023;SDS011;1016;48.770;9.154;2023-07-31T08:37:50;26.40;;;3.03;;
2023;SDS011;1016;48.770;9.154;2023-07-31T08:40:16;27.13;;;2.80;;
2023;SDS011;1016;48.770;9.154;2023-07-31T08:42:45;26.33;;;3.37;;
2023;SDS011;1016;48.770;9.154;2023-07-31T08:45:14;26.07;;;2.60;;
2023;SDS011;1016;48.770;9.154;2023-07-31T08:47:44;28.17;;;4.23;;
2023;SDS011;1016;48.770;9.154;2023-07-31T08:50:12;27.10;;;3.27;;
2023;SDS011;1016;48.770;9.154;2023-07-31T08:52:38;26.90;;;3.53;;
2023;SDS011;1016;48.770;9.154;2023-07-31T08:55:05;27.10;;;2.90;;
2023;SDS011;1016;48.770;9.154;2023-07-31T08:57:31;28.07;;;3.47;;
2023;SDS011;1016;48.770;9.154;2023-07-31T09:00:00;26.83;;;4.30;;
2023;SDS011;1016;48.770;9.154;2023-07-31T09:02:31;27.43;;;2.90;;
2023;SDS011;1016;48.770;9.154;2023-07-31T09:05:05;26.67;;;3.30;;
2023;SDS011;1016;48.770;9.154;2023-07-31T09:07:32;28.67;;;3.57;;
2023;SDS011;1016;48.770;9.154;2023-07-31T09:10:02;26.40;;;2.80;;
2023;SDS011;1016;48.770;9.154;2023-07-31T09:12:28;29.80;;;3.33;;
2023;SDS011;1016;48.770;9.154;2023-07-31T09:14:54;29.10;;;3.63;;
2023;SDS011;1016;48.770;9.154;2023-07-31T09:17:30;26.30;;;3.33;;
2023;SDS011;1016;48.770;9.154;2023-07-31T09:20:21;27.40;;;3.73;;
2023;SDS011;1016;48.770;9.154;2023-07-31T09:22:46;26.73;;;3.60;;
2023;SDS011;1016;48.770;9.154;2023-07-31T09:25:20;26.77;;;2.83;;
2023;SDS011;1016;48.770;9.154;2023-07-31T09:28:02;27.73;;;3.07;;
2023;SDS011;1016;48.770;9.154;2023-07-31T09:30:29;29.03;;;3.27;;
2023;SDS011;1016;48.770;9.154;2023-07-31T09:33:02;29.17;;;3.40;;
2023;SDS011;1016;48.770;9.154;2023-07-31T09:35:31;28.20;;;3.87;;
2023;SDS011;1016;48.770;9.154;2023-07-31T09:37:59;26.73;;;3.60;;
2023;SDS011;1016;48.770;9.154;2023-07-31T09:40:31;28.00;;;4.30;;
2023;SDS011;1016;48.770;9.154;2023-07-31T09:43:01;27.40;;;3.83;;
2023;SDS011;1016;48.770;9.154;2023-07-31T09:45:28;27.30;;;3.30;;
2023;SDS011;1016;48.770;9.154;2023-07-31T09:47:55;28.00;;;3.30;;
2023;SDS011;1016;48.770;9.154;2023-07-31T09:50:22;27.83;;;3.60;;
2023;SDS011;1016;48.770;9.154;2023-07-31T09:52:49;26.67;;;3.27;;
2023;SDS011;1016;48.770;9.154;2023-07-31T09:55:17;27.20;;;3.47;;
2023;SDS011;1016;48.770;9.154;2023-07-31T09:57:47;31.07;;;3.50;;
2023;SDS011;1016;48.770;9.154;2023-07-31T10:00:14;27.60;;;3.60;;
2023;SDS011;1016;48.770;9.154;2023-07-31T10:02:41;30.40;;;3.47;;
2023;SDS011;1016;48.770;9.154;2023-07-31T10:05:14;26.37;;;3.13;;
2023;SDS011;1016;48.770;9.154;2023-07-31T10:07:41;26.30;;;3.63;;
2023;SDS011;1016;48.770;9.154;2023-07-31T10:10:10;27.40;;;3.30;;
2023;SDS011;1016;48.770;9.154;2023-07-31T10:12:36;26.20;;;3.50;;
2023;SDS011;1016;48.770;9.154;2023-07-31T10:15:02;26.30;;;3.00;;
2023;SDS011;1016;48.770;9.154;2023-07-31T10:17:29;27.07;;;3.30;;
2023;SDS011;1016;48.770;9.154;2023-07-31T10:19:58;30.70;;;3.40;;
2023;SDS011;1016;48.770;9.154;2023-07-31T10:22:26;28.10;;;4.57;;
2023;SDS011;1016;48.770;9.154;2023-07-31T10:24:52;28.07;;;3.93;;
2023;SDS011;1016;48.770;9.154;2023-07-31T10:27:19;27.40;;;3.47;;
2023;SDS011;1016;48.770;9.154;2023-07-31T10:29:45;27.93;;;3.80;;
2023;SDS011;1016;48.770;9.154;2023-07-31T10:32:12;26.20;;;3.23;;
2023;SDS011;1016;48.770;9.154;2023-07-31T10:34:40;28.10;;;5.03;;
2023;SDS011;1016;48.770;9.154;2023-07-31T10:44:59;28.10;;;3.90;;
2023;SDS011;1016;48.770;9.154;2023-07-31T10:47:26;27.53;;;4.30;;
2023;SDS011;1016;48.770;9.154;2023-07-31T10:49:52;26.13;;;3.77;;
2023;SDS011;1016;48.770;9.154;2023-07-31T10:52:21;27.10;;;3.67;;
2023;SDS011;1016;48.770;9.154;2023-07-31T10:55:13;26.30;;;3.70;;
2023;SDS011;1016;48.770;9.154;2023-07-31T10:57:44;27.37;;;3.93;;
2023;SDS011;1016;48.770;9.154;2023-07-31T11:02:58;25.87;;;3.30;;
2023;SDS011;1016;48.770;9.154;2023-07-31T11:08:18;28.27;;;3.57;;
2023;SDS011;1016;48.770;9.154;2023-07-31T11:11:03;30.67;;;5.40;;
2023;SDS011;1016;48.770;9.154;2023-07-31T11:13:32;27.47;;;3.77;;
2023;SDS011;1016;48.770;9.154;2023-07-31T11:15:59;27.03;;;3.70;;
2023;SDS011;1016;48.770;9.154;2023-07-31T11:18:28;28.07;;;4.17;;
2023;SDS011;1016;48.770;9.154;2023-07-31T11:20:53;28.67;;;3.43;;
2023;SDS011;1016;48.770;9.154;2023-07-31T11:23:19;28.37;;;3.53;;
2023;SDS011;1016;48.770;9.154;2023-07-31T11:25:46;26.83;;;3.53;;
2023;SDS011;1016;48.770;9.154;2023-07-31T11:28:12;26.10;;;3.20;;
2023;SDS011;1016;48.770;9.154;2023-07-31T11:30:40;27.73;;;4.20;;
2023;SDS011;1016;48.770;9.154;2023-07-31T11:33:07;27.43;;;3.77;;
2023;SDS011;1016;48.770;9.154;2023-07-31T11:35:34;26.67;;;3.40;;
2023;SDS011;1016;48.770;9.154;2023-07-31T11:38:02;30.30;;;4.73;;
2023;SDS011;1016;48.770;9.154;2023-07-31T11:40:28;27.57;;;3.90;;
2023;SDS011;1016;48.770;9.154;2023-07-31T11:43:04;26.67;;;3.43;;
2023;SDS011;1016;48.770;9.154;2023-07-31T11:45:29;27.90;;;3.70;;
2023;SDS011;1016;48.770;9.154;2023-07-31T11:47:55;26.80;;;4.10;;
2023;SDS011;1016;48.770;9.154;2023-07-31T11:50:21;26.50;;;3.90;;
2023;SDS011;1016;48.770;9.154;2023-07-31T11:52:50;26.30;;;4.17;;
2023;SDS011;1016;48.770;9.154;2023-07-31T11:55:20;27.30;;;3.60;;
2023;SDS011;1016;48.770;9.154;2023-07-31T11:57:46;28.50;;;3.80;;
2023;SDS011;1016;48.770;9.154;2023-07-31T12:00:12;27.30;;;3.70;;
2023;SDS011;1016;48.770;9.154;2023-07-31T12:02:39;26.97;;;4.00;;
2023;SDS011;1016;48.770;9.154;2023-07-31T12:05:06;27.40;;;4.10;;
2023;SDS011;1016;48.770;9.154;2023-07-31T12:07:45;27.27;;;3.77;;
2023;SDS011;1016;48.770;9.154;2023-07-31T12:10:25;26.03;;;3.70;;
2023;SDS011;1016;48.770;9.154;2023-07-31T12:12:58;27.90;;;3.93;;
2023;SDS011;1016;48.770;9.154;2023-07-31T12:15:38;28.60;;;4.53;;
2023;SDS011;1016;48.770;9.154;2023-07-31T12:18:06;26.40;;;3.60;;
2023;SDS011;1016;48.770;9.154;2023-07-31T12:20:40;27.93;;;4.83;;
2023;SDS011;1016;48.770;9.154;2023-07-31T12:23:28;25.80;;;3.60;;
2023;SDS011;1016;48.770;9.154;2023-07-31T12:26:08;27.17;;;3.50;;
2023;SDS011;1016;48.770;9.154;2023-07-31T12:28:36;27.90;;;3.67;;
2023;SDS011;1016;48.770;9.154;2023-07-31T12:31:03;28.67;;;3.40;;
2023;SDS011;1016;48.770;9.154;2023-07-31T12:33:36;27.27;;;4.07;;
2023;SDS011;1016;48.770;9.154;2023-07-31T12:36:03;27.60;;;4.77;;
2023;SDS011;1016;48.770;9.154;2023-07-31T12:38:34;27.87;;;4.30;;
2023;SDS011;1016;48.770;9.154;2023-07-31T12:40:59;26.53;;;3.57;;
2023;SDS011;1016;48.770;9.154;2023-07-31T12:43:25;28.57;;;3.47;;
2023;SDS011;1016;48.770;9.154;2023-07-31T12:45:51;25.87;;;3.20;;
2023;SDS011;1016;48.770;9.154;2023-07-31T12:48:16;28.23;;;4.60;;
2023;SDS011;1016;48.770;9.154;2023-07-31T12:50:42;26.33;;;3.60;;
2023;SDS011;1016;48.770;9.154;2023-07-31T12:53:08;27.13;;;4.03;;
2023;SDS011;1016;48.770;9.154;2023-07-31T12:55:33;26.47;;;3.77;;
2023;SDS011;1016;48.770;9.154;2023-07-31T12:58:00;27.20;;;3.60;;
2023;SDS011;1016;48.770;9.154;2023-07-31T13:00:26;27.03;;;4.43;;
2023;SDS011;1016;48.770;9.154;2023-07-31T13:02:51;26.63;;;4.00;;
2023;SDS011;1016;48.770;9.154;2023-07-31T13:05:17;26.60;;;3.50;;
2023;SDS011;1016;48.770;9.154;2023-07-31T13:07:44;26.73;;;3.67;;
2023;SDS011;1016;48.770;9.154;2023-07-31T13:10:10;27.63;;;4.03;;
2023;SDS011;1016;48.770;9.154;2023-07-31T13:12:35;28.97;;;5.60;;
2023;SDS011;1016;48.770;9.154;2023-07-31T13:15:01;25.70;;;3.73;;
2023;SDS011;1016;48.770;9.154;2023-07-31T13:17:27;26.40;;;3.70;;
2023;SDS011;1016;48.770;9.154;2023-07-31T13:19:52;28.00;;;3.80;;
2023;SDS011;1016;48.770;9.154;2023-07-31T13:22:18;30.60;;;3.90;;
2023;SDS011;1016;48.770;9.154;2023-07-31T13:24:43;26.53;;;3.53;;
2023;SDS011;1016;48.770;9.154;2023-07-31T13:27:09;26.43;;;3.23;;
2023;SDS011;1016;48.770;9.154;2023-07-31T13:29:34;27.53;;;3.17;;
2023;SDS011;1016;48.770;9.154;2023-07-31T13:32:00;26.53;;;3.60;;
2023;SDS011;1016;48.770;9.154;2023-07-31T13:34:25;27.93;;;4.07;;
2023;SDS011;1016;48.770;9.154;2023-07-31T13:36:51;28.50;;;6.03;;
2023;SDS011;1016;48.770;9.154;2023-07-31T13:39:16;28.57;;;4.40;;
2023;SDS011;1016;48.770;9.154;2023-07-31T13:41:42;27.70;;;4.60;;
2023;SDS011;1016;48.770;9.154;2023-07-31T13:44:08;26.50;;;3.60;;
2023;SDS011;1016;48.770;9.154;2023-07-31T13:46:33;26.87;;;2.87;;
2023;SDS011;1016;48.770;9.154;2023-07-31T13:48:59;26.50;;;4.50;;
2023;SDS011;1016;48.770;9.154;2023-07-31T13:51:26;26.20;;;3.03;;
2023;SDS011;1016;48.770;9.154;2023-07-31T13:53:52;27.00;;;3.43;;
2023;SDS011;1016;48.770;9.154;2023-07-31T13:56:18;25.93;;;3.20;;
2023;SDS011;1016;48.770;9.154;2023-07-31T13:58:43;25.80;;;3.43;;
2023;SDS011;1016;48.770;9.154;2023-07-31T14:01:09;27.13;;;3.30;;
2023;SDS011;1016;48.770;9.154;2023-07-31T14:03:34;26.90;;;3.97;;
2023;SDS011;1016;48.770;9.154;2023-07-31T14:06:00;27.67;;;4.07;;
2023;SDS011;1016;48.770;9.154;2023-07-31T14:08:26;26.07;;;3.63;;
2023;SDS011;1016;48.770;9.154;2023-07-31T14:10:51;26.67;;;3.50;;
2023;SDS011;1016;48.770;9.154;2023-07-31T14:13:17;27.90;;;4.50;;
2023;SDS011;1016;48.770;9.154;2023-07-31T14:15:42;26.47;;;3.53;;
2023;SDS011;1016;48.770;9.154;2023-07-31T14:18:08;26.50;;;3.70;;
2023;SDS011;1016;48.770;9.154;2023-07-31T14:20:34;25.50;;;3.50;;
2023;SDS011;1016;48.770;9.154;2023-07-31T14:22:59;31.33;;;3.87;;
2023;SDS011;1016;48.770;9.154;2023-07-31T14:25:25;30.67;;;4.30;;
2023;SDS011;1016;48.770;9.154;2023-07-31T14:27:51;26.27;;;3.80;;
2023;SDS011;1016;48.770;9.154;2023-07-31T14:30:16;29.20;;;3.67;;
2023;SDS011;1016;48.770;9.154;2023-07-31T14:32:43;27.23;;;4.00;;
2023;SDS011;1016;48.770;9.154;2023-07-31T14:35:09;25.77;;;2.90;;
2023;SDS011;1016;48.770;9.154;2023-07-31T14:37:38;27.10;;;4.03;;
2023;SDS011;1016;48.770;9.154;2023-07-31T14:40:05;27.30;;;3.80;;
2023;SDS011;1016;48.770;9.154;2023-07-31T14:42:31;26.70;;;2.93;;
2023;SDS011;1016;48.770;9.154;2023-07-31T14:44:56;25.47;;;3.50;;
2023;SDS011;1016;48.770;9.154;2023-07-31T14:47:22;26.23;;;3.60;;
2023;SDS011;1016;48.770;9.154;2023-07-31T14:49:48;27.80;;;4.37;;
2023;SDS011;1016;48.770;9.154;2023-07-31T14:52:13;27.67;;;3.67;;
2023;SDS011;1016;48.770;9.154;2023-07-31T14:54:39;26.00;;;3.40;;
2023;SDS011;1016;48.770;9.154;2023-07-31T14:57:05;27.40;;;3.20;;
2023;SDS011;1016;48.770;9.154;2023-07-31T14:59:30;25.77;;;3.53;;
2023;SDS011;1016;48.770;9.154;2023-07-31T15:01:56;27.90;;;4.27;;
2023;SDS011;1016;48.770;9.154;2023-07-31T15:04:21;27.10;;;3.77;;
2023;SDS011;1016;48.770;9.154;2023-07-31T15:06:47;26.37;;;3.50;;
2023;SDS011;1016;48.770;9.154;2023-07-31T15:09:13;26.83;;;3.10;;
2023;SDS011;1016;48.770;9.154;2023-07-31T15:11:39;26.27;;;3.73;;
2023;SDS011;1016;48.770;9.154;2023-07-31T15:14:05;26.80;;;4.13;;
2023;SDS011;1016;48.770;9.154;2023-07-31T15:16:30;26.77;;;3.50;;
2023;SDS011;1016;48.770;9.154;2023-07-31T15:18:56;27.03;;;3.60;;
2023;SDS011;1016;48.770;9.154;2023-07-31T15:21:22;26.30;;;3.57;;
2023;SDS011;1016;48.770;9.154;2023-07-31T15:23:47;25.87;;;3.20;;